Terminal Aerodrome Forecast
Issued by NWS

Home | Current Version | Previous Version | Text Only | Print | Product List | Glossary On
Versions: 1 2 3 4 5 6 7 8 9 10
000
FTUS44 KLZK 270500
TAFPBF
TAF
KPBF 270531Z 2706/2806 15008KT 5SM -RADZ SCT004 OVC010
      WS020/19045KT
      TEMPO 2706/2710 2SM RA OVC008
     FM271000 14005KT 5SM -RADZ SCT005 OVC008 WS020/19045KT
      TEMPO 2710/2714 2SM RA BR OVC005
     FM271700 36006KT 4SM -DZ BR VCSH BKN008 OVC020
     FM280000 35011KT 4SM -RA BR OVC015 PROB30 2800/2806 RA OVC007=

USA.gov is the U.S. government's official web portal to all federal, state and local government web resources and services.